sensor_id;sensor_type;location;lat;lon;timestamp;P1;durP1;ratioP1;P2;durP2;ratioP2
69789;SDS011;57064;52.046;4.800;2023-06-22T00:02:17;41.35;;;21.40;;
69789;SDS011;57064;52.046;4.800;2023-06-22T00:04:45;36.92;;;20.05;;
69789;SDS011;57064;52.046;4.800;2023-06-22T00:07:12;40.10;;;20.98;;
69789;SDS011;57064;52.046;4.800;2023-06-22T00:09:38;37.38;;;20.88;;
69789;SDS011;57064;52.046;4.800;2023-06-22T00:12:04;39.67;;;20.25;;
69789;SDS011;57064;52.046;4.800;2023-06-22T00:14:31;42.97;;;21.67;;
69789;SDS011;57064;52.046;4.800;2023-06-22T00:16:58;44.55;;;22.55;;
69789;SDS011;57064;52.046;4.800;2023-06-22T00:19:27;44.40;;;22.42;;
69789;SDS011;57064;52.046;4.800;2023-06-22T00:21:55;41.83;;;23.08;;
69789;SDS011;57064;52.046;4.800;2023-06-22T00:24:26;39.08;;;21.95;;
69789;SDS011;57064;52.046;4.800;2023-06-22T00:26:56;37.67;;;19.38;;
69789;SDS011;57064;52.046;4.800;2023-06-22T00:29:26;35.80;;;19.50;;
69789;SDS011;57064;52.046;4.800;2023-06-22T00:31:52;46.72;;;24.77;;
69789;SDS011;57064;52.046;4.800;2023-06-22T00:34:18;50.67;;;26.55;;
69789;SDS011;57064;52.046;4.800;2023-06-22T00:36:44;41.20;;;20.70;;
69789;SDS011;57064;52.046;4.800;2023-06-22T00:39:10;41.70;;;24.30;;
69789;SDS011;57064;52.046;4.800;2023-06-22T00:41:38;46.83;;;24.48;;
69789;SDS011;57064;52.046;4.800;2023-06-22T00:44:07;46.35;;;23.48;;
69789;SDS011;57064;52.046;4.800;2023-06-22T00:46:33;42.25;;;23.02;;
69789;SDS011;57064;52.046;4.800;2023-06-22T00:48:59;43.75;;;24.15;;
69789;SDS011;57064;52.046;4.800;2023-06-22T00:51:26;42.63;;;24.33;;
69789;SDS011;57064;52.046;4.800;2023-06-22T00:53:52;42.63;;;23.70;;
69789;SDS011;57064;52.046;4.800;2023-06-22T00:56:18;51.35;;;25.35;;
69789;SDS011;57064;52.046;4.800;2023-06-22T00:58:45;43.05;;;23.40;;
69789;SDS011;57064;52.046;4.800;2023-06-22T01:01:12;43.78;;;23.15;;
69789;SDS011;57064;52.046;4.800;2023-06-22T01:03:39;46.83;;;23.85;;
69789;SDS011;57064;52.046;4.800;2023-06-22T01:06:07;51.58;;;24.83;;
69789;SDS011;57064;52.046;4.800;2023-06-22T01:08:39;48.95;;;24.65;;
69789;SDS011;57064;52.046;4.800;2023-06-22T01:13:55;50.33;;;25.95;;
69789;SDS011;57064;52.046;4.800;2023-06-22T01:16:37;55.40;;;26.58;;
69789;SDS011;57064;52.046;4.800;2023-06-22T01:22:01;59.00;;;28.63;;
69789;SDS011;57064;52.046;4.800;2023-06-22T01:24:41;56.38;;;28.20;;
69789;SDS011;57064;52.046;4.800;2023-06-22T01:29:56;52.63;;;28.70;;
69789;SDS011;57064;52.046;4.800;2023-06-22T01:32:31;55.88;;;27.88;;
69789;SDS011;57064;52.046;4.800;2023-06-22T01:35:00;59.03;;;29.55;;
69789;SDS011;57064;52.046;4.800;2023-06-22T01:37:28;57.83;;;28.88;;
69789;SDS011;57064;52.046;4.800;2023-06-22T01:39:56;57.58;;;28.50;;
69789;SDS011;57064;52.046;4.800;2023-06-22T01:42:26;62.78;;;29.80;;
69789;SDS011;57064;52.046;4.800;2023-06-22T01:44:53;55.42;;;28.08;;
69789;SDS011;57064;52.046;4.800;2023-06-22T01:47:20;56.28;;;29.80;;
69789;SDS011;57064;52.046;4.800;2023-06-22T01:49:47;57.15;;;29.27;;
69789;SDS011;57064;52.046;4.800;2023-06-22T01:52:14;60.08;;;31.48;;
69789;SDS011;57064;52.046;4.800;2023-06-22T01:54:41;64.30;;;31.20;;
69789;SDS011;57064;52.046;4.800;2023-06-22T01:57:07;73.32;;;34.53;;
69789;SDS011;57064;52.046;4.800;2023-06-22T01:59:37;70.53;;;35.00;;
69789;SDS011;57064;52.046;4.800;2023-06-22T02:02:14;75.70;;;35.83;;
69789;SDS011;57064;52.046;4.800;2023-06-22T02:04:48;74.38;;;35.40;;
69789;SDS011;57064;52.046;4.800;2023-06-22T02:07:23;79.53;;;34.90;;
69789;SDS011;57064;52.046;4.800;2023-06-22T02:09:52;77.82;;;38.47;;
69789;SDS011;57064;52.046;4.800;2023-06-22T02:12:21;82.03;;;38.28;;
69789;SDS011;57064;52.046;4.800;2023-06-22T02:14:49;85.40;;;39.33;;
69789;SDS011;57064;52.046;4.800;2023-06-22T02:17:17;84.38;;;39.35;;
69789;SDS011;57064;52.046;4.800;2023-06-22T02:19:43;86.97;;;39.80;;
69789;SDS011;57064;52.046;4.800;2023-06-22T02:22:09;89.43;;;41.28;;
69789;SDS011;57064;52.046;4.800;2023-06-22T02:24:35;102.70;;;41.25;;
69789;SDS011;57064;52.046;4.800;2023-06-22T02:27:01;105.35;;;44.85;;
69789;SDS011;57064;52.046;4.800;2023-06-22T02:29:28;114.20;;;48.50;;
69789;SDS011;57064;52.046;4.800;2023-06-22T02:31:56;117.47;;;49.05;;
69789;SDS011;57064;52.046;4.800;2023-06-22T02:34:22;104.25;;;43.70;;
69789;SDS011;57064;52.046;4.800;2023-06-22T02:36:49;128.38;;;42.15;;
69789;SDS011;57064;52.046;4.800;2023-06-22T02:39:19;103.50;;;40.30;;
69789;SDS011;57064;52.046;4.800;2023-06-22T02:41:47;107.63;;;39.38;;
69789;SDS011;57064;52.046;4.800;2023-06-22T02:44:14;99.28;;;40.92;;
69789;SDS011;57064;52.046;4.800;2023-06-22T02:46:40;106.80;;;44.92;;
69789;SDS011;57064;52.046;4.800;2023-06-22T02:49:07;109.75;;;45.92;;
69789;SDS011;57064;52.046;4.800;2023-06-22T02:51:33;105.85;;;43.13;;
69789;SDS011;57064;52.046;4.800;2023-06-22T02:54:05;108.05;;;45.00;;
69789;SDS011;57064;52.046;4.800;2023-06-22T02:56:31;108.25;;;45.72;;
69789;SDS011;57064;52.046;4.800;2023-06-22T02:58:58;108.45;;;47.65;;
69789;SDS011;57064;52.046;4.800;2023-06-22T03:01:27;160.18;;;46.78;;
69789;SDS011;57064;52.046;4.800;2023-06-22T03:03:55;108.90;;;45.38;;
69789;SDS011;57064;52.046;4.800;2023-06-22T03:06:21;109.40;;;47.28;;
69789;SDS011;57064;52.046;4.800;2023-06-22T03:08:51;136.43;;;45.95;;
69789;SDS011;57064;52.046;4.800;2023-06-22T03:11:17;111.80;;;46.28;;
69789;SDS011;57064;52.046;4.800;2023-06-22T03:13:43;112.05;;;48.58;;
69789;SDS011;57064;52.046;4.800;2023-06-22T03:16:12;115.50;;;49.70;;
69789;SDS011;57064;52.046;4.800;2023-06-22T03:18:43;128.13;;;52.93;;
69789;SDS011;57064;52.046;4.800;2023-06-22T03:21:09;135.68;;;49.85;;
69789;SDS011;57064;52.046;4.800;2023-06-22T03:23:35;156.48;;;54.47;;
69789;SDS011;57064;52.046;4.800;2023-06-22T03:26:01;191.07;;;53.55;;
69789;SDS011;57064;52.046;4.800;2023-06-22T03:28:27;260.38;;;58.17;;
69789;SDS011;57064;52.046;4.800;2023-06-22T03:30:53;186.45;;;53.95;;
69789;SDS011;57064;52.046;4.800;2023-06-22T03:33:22;150.38;;;54.97;;
69789;SDS011;57064;52.046;4.800;2023-06-22T03:35:48;175.15;;;52.55;;
69789;SDS011;57064;52.046;4.800;2023-06-22T03:38:15;404.67;;;51.65;;
69789;SDS011;57064;52.046;4.800;2023-06-22T03:40:41;180.73;;;48.58;;
69789;SDS011;57064;52.046;4.800;2023-06-22T03:43:07;146.77;;;52.30;;
69789;SDS011;57064;52.046;4.800;2023-06-22T03:45:33;165.10;;;52.22;;
69789;SDS011;57064;52.046;4.800;2023-06-22T03:48:00;158.73;;;56.03;;
69789;SDS011;57064;52.046;4.800;2023-06-22T03:50:26;173.57;;;55.25;;
69789;SDS011;57064;52.046;4.800;2023-06-22T03:52:52;230.55;;;54.55;;
69789;SDS011;57064;52.046;4.800;2023-06-22T03:55:22;186.80;;;56.28;;
69789;SDS011;57064;52.046;4.800;2023-06-22T03:57:49;248.85;;;55.03;;
69789;SDS011;57064;52.046;4.800;2023-06-22T04:00:19;175.25;;;51.67;;
69789;SDS011;57064;52.046;4.800;2023-06-22T04:02:46;166.10;;;54.30;;
69789;SDS011;57064;52.046;4.800;2023-06-22T04:05:15;148.63;;;54.13;;
69789;SDS011;57064;52.046;4.800;2023-06-22T04:07:44;164.25;;;58.58;;
69789;SDS011;57064;52.046;4.800;2023-06-22T04:10:10;225.05;;;60.28;;
69789;SDS011;57064;52.046;4.800;2023-06-22T04:12:36;211.35;;;60.08;;
69789;SDS011;57064;52.046;4.800;2023-06-22T04:15:02;187.15;;;62.58;;
69789;SDS011;57064;52.046;4.800;2023-06-22T04:17:28;195.93;;;66.57;;
69789;SDS011;57064;52.046;4.800;2023-06-22T04:19:54;187.20;;;64.57;;
69789;SDS011;57064;52.046;4.800;2023-06-22T04:22:20;197.00;;;68.20;;
69789;SDS011;57064;52.046;4.800;2023-06-22T04:24:46;191.85;;;66.30;;
69789;SDS011;57064;52.046;4.800;2023-06-22T04:27:12;191.00;;;65.43;;
69789;SDS011;57064;52.046;4.800;2023-06-22T04:29:38;181.45;;;64.00;;
69789;SDS011;57064;52.046;4.800;2023-06-22T04:32:13;158.02;;;60.63;;
69789;SDS011;57064;52.046;4.800;2023-06-22T04:34:40;129.57;;;53.85;;
69789;SDS011;57064;52.046;4.800;2023-06-22T04:37:06;112.88;;;50.20;;
69789;SDS011;57064;52.046;4.800;2023-06-22T04:39:32;90.82;;;45.15;;
69789;SDS011;57064;52.046;4.800;2023-06-22T04:41:58;70.80;;;36.35;;
69789;SDS011;57064;52.046;4.800;2023-06-22T04:44:25;52.95;;;30.92;;
69789;SDS011;57064;52.046;4.800;2023-06-22T04:46:56;40.83;;;25.23;;
69789;SDS011;57064;52.046;4.800;2023-06-22T04:49:31;32.90;;;19.65;;
69789;SDS011;57064;52.046;4.800;2023-06-22T04:52:11;29.30;;;17.85;;
69789;SDS011;57064;52.046;4.800;2023-06-22T04:54:43;24.00;;;14.90;;
69789;SDS011;57064;52.046;4.800;2023-06-22T04:57:16;22.52;;;13.77;;
69789;SDS011;57064;52.046;4.800;2023-06-22T04:59:46;17.90;;;12.25;;
69789;SDS011;57064;52.046;4.800;2023-06-22T05:02:13;20.27;;;13.02;;
69789;SDS011;57064;52.046;4.800;2023-06-22T05:04:39;18.25;;;12.27;;
69789;SDS011;57064;52.046;4.800;2023-06-22T05:07:05;18.88;;;13.10;;
69789;SDS011;57064;52.046;4.800;2023-06-22T05:09:32;21.40;;;13.90;;
69789;SDS011;57064;52.046;4.800;2023-06-22T05:11:58;23.13;;;13.93;;
69789;SDS011;57064;52.046;4.800;2023-06-22T05:14:27;20.33;;;13.77;;
69789;SDS011;57064;52.046;4.800;2023-06-22T05:16:54;20.83;;;13.63;;
69789;SDS011;57064;52.046;4.800;2023-06-22T05:19:23;22.48;;;13.60;;
69789;SDS011;57064;52.046;4.800;2023-06-22T05:21:50;18.83;;;12.52;;
69789;SDS011;57064;52.046;4.800;2023-06-22T05:24:16;20.13;;;12.48;;
69789;SDS011;57064;52.046;4.800;2023-06-22T05:26:42;18.60;;;12.10;;
69789;SDS011;57064;52.046;4.800;2023-06-22T05:29:08;20.33;;;12.70;;
69789;SDS011;57064;52.046;4.800;2023-06-22T05:31:34;16.67;;;12.02;;
69789;SDS011;57064;52.046;4.800;2023-06-22T05:34:01;17.10;;;12.05;;
69789;SDS011;57064;52.046;4.800;2023-06-22T05:36:30;19.75;;;12.48;;
69789;SDS011;57064;52.046;4.800;2023-06-22T05:38:56;17.00;;;11.80;;
69789;SDS011;57064;52.046;4.800;2023-06-22T05:41:23;18.67;;;11.75;;
69789;SDS011;57064;52.046;4.800;2023-06-22T05:43:49;18.30;;;12.10;;
69789;SDS011;57064;52.046;4.800;2023-06-22T05:46:16;18.55;;;12.13;;
69789;SDS011;57064;52.046;4.800;2023-06-22T05:48:44;19.60;;;12.55;;
69789;SDS011;57064;52.046;4.800;2023-06-22T05:51:10;18.00;;;12.85;;
69789;SDS011;57064;52.046;4.800;2023-06-22T05:53:36;22.20;;;13.50;;
69789;SDS011;57064;52.046;4.800;2023-06-22T05:56:02;21.00;;;14.05;;
69789;SDS011;57064;52.046;4.800;2023-06-22T05:58:29;18.42;;;13.07;;
69789;SDS011;57064;52.046;4.800;2023-06-22T06:00:55;22.20;;;14.60;;
69789;SDS011;57064;52.046;4.800;2023-06-22T06:03:21;23.75;;;14.20;;
69789;SDS011;57064;52.046;4.800;2023-06-22T06:05:47;24.05;;;15.23;;
69789;SDS011;57064;52.046;4.800;2023-06-22T06:08:14;24.33;;;14.70;;
69789;SDS011;57064;52.046;4.800;2023-06-22T06:10:40;22.67;;;15.18;;
69789;SDS011;57064;52.046;4.800;2023-06-22T06:13:06;23.17;;;14.75;;
69789;SDS011;57064;52.046;4.800;2023-06-22T06:15:32;22.98;;;14.75;;
69789;SDS011;57064;52.046;4.800;2023-06-22T06:17:59;22.80;;;15.07;;
69789;SDS011;57064;52.046;4.800;2023-06-22T06:20:25;25.88;;;15.43;;
69789;SDS011;57064;52.046;4.800;2023-06-22T06:22:55;23.63;;;15.43;;
69789;SDS011;57064;52.046;4.800;2023-06-22T06:25:21;21.55;;;14.50;;
69789;SDS011;57064;52.046;4.800;2023-06-22T06:27:47;22.20;;;14.38;;
69789;SDS011;57064;52.046;4.800;2023-06-22T06:30:15;21.92;;;14.23;;
69789;SDS011;57064;52.046;4.800;2023-06-22T06:32:45;20.40;;;14.52;;
69789;SDS011;57064;52.046;4.800;2023-06-22T06:35:12;21.58;;;13.27;;
69789;SDS011;57064;52.046;4.800;2023-06-22T06:37:41;18.05;;;13.52;;
69789;SDS011;57064;52.046;4.800;2023-06-22T06:40:09;21.60;;;13.13;;
69789;SDS011;57064;52.046;4.800;2023-06-22T06:42:37;20.67;;;13.60;;
69789;SDS011;57064;52.046;4.800;2023-06-22T06:45:09;21.13;;;14.00;;
69789;SDS011;57064;52.046;4.800;2023-06-22T06:47:37;20.27;;;14.32;;
69789;SDS011;57064;52.046;4.800;2023-06-22T06:50:04;20.95;;;13.95;;
69789;SDS011;57064;52.046;4.800;2023-06-22T06:52:31;22.58;;;14.77;;
69789;SDS011;57064;52.046;4.800;2023-06-22T06:54:58;22.05;;;14.45;;
69789;SDS011;57064;52.046;4.800;2023-06-22T06:57:24;24.08;;;16.02;;
69789;SDS011;57064;52.046;4.800;2023-06-22T06:59:54;21.55;;;13.73;;
69789;SDS011;57064;52.046;4.800;2023-06-22T07:02:21;21.60;;;15.65;;
69789;SDS011;57064;52.046;4.800;2023-06-22T07:04:48;23.65;;;13.95;;
69789;SDS011;57064;52.046;4.800;2023-06-22T07:07:14;21.35;;;14.00;;
69789;SDS011;57064;52.046;4.800;2023-06-22T07:09:40;24.10;;;15.57;;
69789;SDS011;57064;52.046;4.800;2023-06-22T07:12:07;25.65;;;16.65;;
69789;SDS011;57064;52.046;4.800;2023-06-22T07:14:33;25.27;;;16.13;;
69789;SDS011;57064;52.046;4.800;2023-06-22T07:16:59;24.50;;;12.98;;
69789;SDS011;57064;52.046;4.800;2023-06-22T07:19:26;21.20;;;14.43;;
69789;SDS011;57064;52.046;4.800;2023-06-22T07:21:53;23.73;;;16.00;;
69789;SDS011;57064;52.046;4.800;2023-06-22T07:24:20;28.05;;;16.98;;
69789;SDS011;57064;52.046;4.800;2023-06-22T07:26:48;30.05;;;17.30;;
69789;SDS011;57064;52.046;4.800;2023-06-22T07:29:16;31.23;;;18.30;;
69789;SDS011;57064;52.046;4.800;2023-06-22T07:31:43;26.17;;;18.00;;
69789;SDS011;57064;52.046;4.800;2023-06-22T07:34:09;30.17;;;18.55;;
69789;SDS011;57064;52.046;4.800;2023-06-22T07:36:35;28.17;;;17.52;;
69789;SDS011;57064;52.046;4.800;2023-06-22T07:39:02;25.42;;;17.55;;
69789;SDS011;57064;52.046;4.800;2023-06-22T07:41:29;28.25;;;17.50;;
69789;SDS011;57064;52.046;4.800;2023-06-22T07:43:55;25.17;;;17.42;;
69789;SDS011;57064;52.046;4.800;2023-06-22T07:46:22;30.52;;;19.45;;
69789;SDS011;57064;52.046;4.800;2023-06-22T07:48:48;29.67;;;19.55;;
69789;SDS011;57064;52.046;4.800;2023-06-22T07:51:14;31.13;;;20.25;;
69789;SDS011;57064;52.046;4.800;2023-06-22T07:53:41;31.95;;;20.45;;
69789;SDS011;57064;52.046;4.800;2023-06-22T07:56:10;30.60;;;20.85;;
69789;SDS011;57064;52.046;4.800;2023-06-22T07:58:36;35.30;;;21.52;;
69789;SDS011;57064;52.046;4.800;2023-06-22T08:01:02;30.45;;;20.10;;
69789;SDS011;57064;52.046;4.800;2023-06-22T08:03:29;33.22;;;22.70;;
69789;SDS011;57064;52.046;4.800;2023-06-22T08:05:55;32.97;;;22.08;;
69789;SDS011;57064;52.046;4.800;2023-06-22T08:08:21;30.45;;;21.02;;
69789;SDS011;57064;52.046;4.800;2023-06-22T08:10:47;33.70;;;22.70;;
69789;SDS011;57064;52.046;4.800;2023-06-22T08:13:13;28.08;;;20.17;;
69789;SDS011;57064;52.046;4.800;2023-06-22T08:15:39;26.88;;;19.13;;
69789;SDS011;57064;52.046;4.800;2023-06-22T08:18:06;26.65;;;19.42;;
69789;SDS011;57064;52.046;4.800;2023-06-22T08:20:32;27.80;;;20.05;;
69789;SDS011;57064;52.046;4.800;2023-06-22T08:22:58;27.38;;;19.45;;
69789;SDS011;57064;52.046;4.800;2023-06-22T08:25:30;29.92;;;20.17;;
69789;SDS011;57064;52.046;4.800;2023-06-22T08:28:00;31.58;;;19.45;;
69789;SDS011;57064;52.046;4.800;2023-06-22T08:30:26;26.38;;;18.42;;
69789;SDS011;57064;52.046;4.800;2023-06-22T08:32:53;26.70;;;18.60;;
69789;SDS011;57064;52.046;4.800;2023-06-22T08:35:20;25.52;;;17.00;;
69789;SDS011;57064;52.046;4.800;2023-06-22T08:37:49;21.30;;;15.02;;
69789;SDS011;57064;52.046;4.800;2023-06-22T08:40:17;18.10;;;13.38;;
69789;SDS011;57064;52.046;4.800;2023-06-22T08:42:44;18.13;;;11.80;;
69789;SDS011;57064;52.046;4.800;2023-06-22T08:45:11;18.63;;;11.30;;
69789;SDS011;57064;52.046;4.800;2023-06-22T08:47:38;25.98;;;13.80;;
69789;SDS011;57064;52.046;4.800;2023-06-22T08:50:06;19.65;;;13.20;;
69789;SDS011;57064;52.046;4.800;2023-06-22T08:52:34;23.33;;;15.18;;
69789;SDS011;57064;52.046;4.800;2023-06-22T08:55:00;18.05;;;13.40;;
69789;SDS011;57064;52.046;4.800;2023-06-22T08:57:26;18.77;;;13.55;;
69789;SDS011;57064;52.046;4.800;2023-06-22T08:59:53;18.25;;;13.10;;
69789;SDS011;57064;52.046;4.800;2023-06-22T09:02:23;22.73;;;16.08;;
69789;SDS011;57064;52.046;4.800;2023-06-22T09:04:55;21.45;;;14.73;;
69789;SDS011;57064;52.046;4.800;2023-06-22T09:07:24;24.40;;;15.93;;
69789;SDS011;57064;52.046;4.800;2023-06-22T09:09:51;22.40;;;15.10;;
69789;SDS011;57064;52.046;4.800;2023-06-22T09:12:19;19.02;;;13.32;;
69789;SDS011;57064;52.046;4.800;2023-06-22T09:14:48;14.73;;;10.63;;
69789;SDS011;57064;52.046;4.800;2023-06-22T09:17:14;15.52;;;11.30;;
69789;SDS011;57064;52.046;4.800;2023-06-22T09:19:40;20.02;;;12.50;;
69789;SDS011;57064;52.046;4.800;2023-06-22T09:22:06;18.73;;;13.40;;
69789;SDS011;57064;52.046;4.800;2023-06-22T09:24:32;19.40;;;13.50;;
69789;SDS011;57064;52.046;4.800;2023-06-22T09:26:58;18.50;;;12.68;;
69789;SDS011;57064;52.046;4.800;2023-06-22T09:29:24;19.38;;;12.35;;
69789;SDS011;57064;52.046;4.800;2023-06-22T09:31:51;16.95;;;11.82;;
69789;SDS011;57064;52.046;4.800;2023-06-22T09:34:18;21.88;;;13.45;;
69789;SDS011;57064;52.046;4.800;2023-06-22T09:36:46;16.77;;;13.05;;
69789;SDS011;57064;52.046;4.800;2023-06-22T09:39:12;14.45;;;9.57;;
69789;SDS011;57064;52.046;4.800;2023-06-22T09:41:39;16.25;;;11.32;;
69789;SDS011;57064;52.046;4.800;2023-06-22T09:44:05;14.23;;;10.93;;
69789;SDS011;57064;52.046;4.800;2023-06-22T09:46:31;15.65;;;10.65;;
69789;SDS011;57064;52.046;4.800;2023-06-22T09:48:58;13.88;;;10.73;;
69789;SDS011;57064;52.046;4.800;2023-06-22T09:51:24;15.35;;;10.90;;
69789;SDS011;57064;52.046;4.800;2023-06-22T09:53:50;16.58;;;10.60;;
69789;SDS011;57064;52.046;4.800;2023-06-22T09:56:17;16.90;;;10.35;;
69789;SDS011;57064;52.046;4.800;2023-06-22T09:58:43;15.13;;;11.05;;
69789;SDS011;57064;52.046;4.800;2023-06-22T10:01:11;15.70;;;12.98;;
69789;SDS011;57064;52.046;4.800;2023-06-22T10:03:39;18.50;;;14.70;;
69789;SDS011;57064;52.046;4.800;2023-06-22T10:06:06;14.45;;;10.43;;
69789;SDS011;57064;52.046;4.800;2023-06-22T10:08:33;12.88;;;9.32;;
69789;SDS011;57064;52.046;4.800;2023-06-22T10:10:59;13.10;;;10.23;;
69789;SDS011;57064;52.046;4.800;2023-06-22T10:13:27;11.52;;;8.77;;
69789;SDS011;57064;52.046;4.800;2023-06-22T10:15:53;12.25;;;8.40;;
69789;SDS011;57064;52.046;4.800;2023-06-22T10:18:19;12.05;;;8.15;;
69789;SDS011;57064;52.046;4.800;2023-06-22T10:20:47;10.52;;;8.30;;
69789;SDS011;57064;52.046;4.800;2023-06-22T10:25:44;12.63;;;8.90;;
69789;SDS011;57064;52.046;4.800;2023-06-22T10:28:10;11.93;;;8.25;;
69789;SDS011;57064;52.046;4.800;2023-06-22T10:30:38;13.23;;;9.82;;
69789;SDS011;57064;52.046;4.800;2023-06-22T10:33:06;13.75;;;9.65;;
69789;SDS011;57064;52.046;4.800;2023-06-22T10:35:33;16.92;;;10.95;;
69789;SDS011;57064;52.046;4.800;2023-06-22T10:37:59;19.45;;;13.15;;
69789;SDS011;57064;52.046;4.800;2023-06-22T10:40:25;17.08;;;12.70;;
69789;SDS011;57064;52.046;4.800;2023-06-22T10:42:51;16.20;;;12.35;;
69789;SDS011;57064;52.046;4.800;2023-06-22T10:45:17;16.08;;;13.07;;
69789;SDS011;57064;52.046;4.800;2023-06-22T10:47:44;16.75;;;13.00;;
69789;SDS011;57064;52.046;4.800;2023-06-22T10:50:10;18.58;;;14.30;;
69789;SDS011;57064;52.046;4.800;2023-06-22T10:52:37;18.52;;;14.27;;
69789;SDS011;57064;52.046;4.800;2023-06-22T10:55:03;23.08;;;16.20;;
69789;SDS011;57064;52.046;4.800;2023-06-22T10:57:30;20.65;;;15.45;;
69789;SDS011;57064;52.046;4.800;2023-06-22T10:59:56;20.35;;;15.30;;
69789;SDS011;57064;52.046;4.800;2023-06-22T11:02:22;23.50;;;15.45;;
69789;SDS011;57064;52.046;4.800;2023-06-22T11:04:49;18.92;;;14.00;;
69789;SDS011;57064;52.046;4.800;2023-06-22T11:07:15;20.50;;;15.02;;
69789;SDS011;57064;52.046;4.800;2023-06-22T11:09:44;17.30;;;13.70;;
69789;SDS011;57064;52.046;4.800;2023-06-22T11:12:11;18.67;;;14.07;;
69789;SDS011;57064;52.046;4.800;2023-06-22T11:14:38;18.33;;;12.25;;
69789;SDS011;57064;52.046;4.800;2023-06-22T11:17:04;20.55;;;12.82;;
69789;SDS011;57064;52.046;4.800;2023-06-22T11:19:30;18.70;;;13.45;;
69789;SDS011;57064;52.046;4.800;2023-06-22T11:21:56;27.65;;;19.27;;
69789;SDS011;57064;52.046;4.800;2023-06-22T11:24:22;27.50;;;19.60;;
69789;SDS011;57064;52.046;4.800;2023-06-22T11:26:49;29.55;;;21.40;;
69789;SDS011;57064;52.046;4.800;2023-06-22T11:29:15;33.15;;;24.02;;
69789;SDS011;57064;52.046;4.800;2023-06-22T11:31:41;33.42;;;24.17;;
69789;SDS011;57064;52.046;4.800;2023-06-22T11:34:08;32.25;;;24.63;;
69789;SDS011;57064;52.046;4.800;2023-06-22T11:36:34;31.85;;;23.40;;
69789;SDS011;57064;52.046;4.800;2023-06-22T11:39:01;35.03;;;25.77;;
69789;SDS011;57064;52.046;4.800;2023-06-22T11:41:27;35.10;;;25.05;;
69789;SDS011;57064;52.046;4.800;2023-06-22T11:43:53;30.27;;;22.77;;
69789;SDS011;57064;52.046;4.800;2023-06-22T11:46:19;34.13;;;23.52;;
69789;SDS011;57064;52.046;4.800;2023-06-22T11:48:45;30.17;;;22.70;;
69789;SDS011;57064;52.046;4.800;2023-06-22T11:51:11;36.35;;;24.80;;
69789;SDS011;57064;52.046;4.800;2023-06-22T11:53:37;33.70;;;24.42;;
69789;SDS011;57064;52.046;4.800;2023-06-22T11:56:03;32.97;;;23.30;;
69789;SDS011;57064;52.046;4.800;2023-06-22T11:58:30;32.42;;;23.98;;
69789;SDS011;57064;52.046;4.800;2023-06-22T12:00:56;35.67;;;25.55;;
69789;SDS011;57064;52.046;4.800;2023-06-22T12:03:22;37.13;;;26.10;;
69789;SDS011;57064;52.046;4.800;2023-06-22T12:05:49;39.17;;;27.23;;
69789;SDS011;57064;52.046;4.800;2023-06-22T12:08:16;37.58;;;26.13;;
69789;SDS011;57064;52.046;4.800;2023-06-22T12:10:42;34.10;;;25.58;;
69789;SDS011;57064;52.046;4.800;2023-06-22T12:13:08;35.55;;;25.55;;
69789;SDS011;57064;52.046;4.800;2023-06-22T12:15:34;35.20;;;24.83;;
69789;SDS011;57064;52.046;4.800;2023-06-22T12:18:00;37.20;;;25.73;;
69789;SDS011;57064;52.046;4.800;2023-06-22T12:20:27;30.40;;;24.15;;
69789;SDS011;57064;52.046;4.800;2023-06-22T12:22:53;35.78;;;25.33;;
69789;SDS011;57064;52.046;4.800;2023-06-22T12:25:21;36.13;;;25.42;;
69789;SDS011;57064;52.046;4.800;2023-06-22T12:27:47;35.03;;;24.48;;
69789;SDS011;57064;52.046;4.800;2023-06-22T12:30:15;35.17;;;24.38;;
69789;SDS011;57064;52.046;4.800;2023-06-22T12:32:42;35.03;;;24.42;;
69789;SDS011;57064;52.046;4.800;2023-06-22T12:35:08;34.60;;;24.90;;
69789;SDS011;57064;52.046;4.800;2023-06-22T12:37:39;41.50;;;24.73;;
69789;SDS011;57064;52.046;4.800;2023-06-22T12:40:08;31.27;;;22.98;;
69789;SDS011;57064;52.046;4.800;2023-06-22T12:42:35;31.85;;;23.33;;
69789;SDS011;57064;52.046;4.800;2023-06-22T12:45:01;36.45;;;24.85;;
69789;SDS011;57064;52.046;4.800;2023-06-22T12:47:27;38.47;;;26.13;;
69789;SDS011;57064;52.046;4.800;2023-06-22T12:49:53;38.03;;;26.88;;
69789;SDS011;57064;52.046;4.800;2023-06-22T12:52:19;38.15;;;25.95;;
69789;SDS011;57064;52.046;4.800;2023-06-22T12:54:45;37.55;;;26.67;;
69789;SDS011;57064;52.046;4.800;2023-06-22T12:57:11;38.20;;;26.95;;
69789;SDS011;57064;52.046;4.800;2023-06-22T12:59:38;41.97;;;27.77;;
69789;SDS011;57064;52.046;4.800;2023-06-22T13:02:04;48.35;;;28.80;;
69789;SDS011;57064;52.046;4.800;2023-06-22T13:04:30;40.80;;;28.38;;
69789;SDS011;57064;52.046;4.800;2023-06-22T13:06:56;50.00;;;30.42;;
69789;SDS011;57064;52.046;4.800;2023-06-22T13:09:22;44.67;;;30.15;;
69789;SDS011;57064;52.046;4.800;2023-06-22T13:11:48;48.67;;;32.25;;
69789;SDS011;57064;52.046;4.800;2023-06-22T13:14:15;47.25;;;31.83;;
69789;SDS011;57064;52.046;4.800;2023-06-22T13:16:41;51.70;;;35.35;;
69789;SDS011;57064;52.046;4.800;2023-06-22T13:19:07;55.88;;;35.53;;
69789;SDS011;57064;52.046;4.800;2023-06-22T13:21:33;59.50;;;37.10;;
69789;SDS011;57064;52.046;4.800;2023-06-22T13:23:59;55.22;;;37.70;;
69789;SDS011;57064;52.046;4.800;2023-06-22T13:26:26;60.95;;;38.20;;
69789;SDS011;57064;52.046;4.800;2023-06-22T13:28:53;55.30;;;36.65;;
69789;SDS011;57064;52.046;4.800;2023-06-22T13:31:19;52.67;;;35.60;;
69789;SDS011;57064;52.046;4.800;2023-06-22T13:33:46;56.42;;;36.38;;
69789;SDS011;57064;52.046;4.800;2023-06-22T13:36:13;57.53;;;37.63;;
69789;SDS011;57064;52.046;4.800;2023-06-22T13:38:40;56.72;;;37.22;;
69789;SDS011;57064;52.046;4.800;2023-06-22T13:41:06;54.25;;;35.33;;
69789;SDS011;57064;52.046;4.800;2023-06-22T13:43:32;49.85;;;34.08;;
69789;SDS011;57064;52.046;4.800;2023-06-22T13:45:58;51.30;;;31.75;;
69789;SDS011;57064;52.046;4.800;2023-06-22T13:48:24;42.63;;;27.98;;
69789;SDS011;57064;52.046;4.800;2023-06-22T13:50:51;35.08;;;23.30;;
69789;SDS011;57064;52.046;4.800;2023-06-22T13:53:17;30.17;;;20.33;;
69789;SDS011;57064;52.046;4.800;2023-06-22T13:55:43;31.00;;;20.70;;
69789;SDS011;57064;52.046;4.800;2023-06-22T13:58:09;26.42;;;19.05;;
69789;SDS011;57064;52.046;4.800;2023-06-22T14:00:36;29.92;;;20.55;;
69789;SDS011;57064;52.046;4.800;2023-06-22T14:03:02;28.35;;;20.20;;
69789;SDS011;57064;52.046;4.800;2023-06-22T14:05:28;29.45;;;19.83;;
69789;SDS011;57064;52.046;4.800;2023-06-22T14:07:54;29.42;;;19.92;;
69789;SDS011;57064;52.046;4.800;2023-06-22T14:10:21;27.15;;;18.70;;
69789;SDS011;57064;52.046;4.800;2023-06-22T14:12:47;27.92;;;19.42;;
69789;SDS011;57064;52.046;4.800;2023-06-22T14:15:13;28.85;;;18.08;;
69789;SDS011;57064;52.046;4.800;2023-06-22T14:17:39;28.73;;;17.98;;
69789;SDS011;57064;52.046;4.800;2023-06-22T14:20:05;30.75;;;19.15;;
69789;SDS011;57064;52.046;4.800;2023-06-22T14:22:33;28.58;;;17.98;;
69789;SDS011;57064;52.046;4.800;2023-06-22T14:25:01;23.48;;;16.02;;
69789;SDS011;57064;52.046;4.800;2023-06-22T14:27:27;21.45;;;14.50;;
69789;SDS011;57064;52.046;4.800;2023-06-22T14:29:54;20.60;;;12.50;;
69789;SDS011;57064;52.046;4.800;2023-06-22T14:32:20;19.55;;;11.63;;